Time;durP1;ratioP1;P1;durP2;ratioP2;P2;SDS_P1;SDS_P2;PMS_P1;PMS_P2;Temp;Humidity;BMP_temperature;BMP_pressure;BME280_temperature;BME280_humidity;BME280_pressure;Samples;Min_cycle;Max_cycle;Signal;HPM_P1;HPM_P2
2021/05/26 00:02:11;;;;;;;8.45;3.22;;;12.50;99.90;;;;;;5050865;28;20210;-68
2021/05/26 00:04:37;;;;;;;9.43;4.10;;;12.40;99.90;;;;;;5051087;28;20214;-68
2021/05/26 00:07:04;;;;;;;7.72;3.47;;;12.30;99.90;;;;;;5051215;28;20210;-68
2021/05/26 00:09:30;;;;;;;4.68;3.13;;;12.30;99.90;;;;;;5050858;28;20207;-68
2021/05/26 00:11:57;;;;;;;8.02;2.88;;;12.20;99.90;;;;;;5051372;28;20714;-68
2021/05/26 00:14:24;;;;;;;10.40;3.45;;;12.20;99.90;;;;;;5054577;28;20224;-68
2021/05/26 00:16:51;;;;;;;13.18;3.53;;;12.20;99.90;;;;;;5054279;28;20292;-68
2021/05/26 00:19:17;;;;;;;8.23;3.53;;;12.10;99.90;;;;;;5054440;28;20207;-68
2021/05/26 00:21:44;;;;;;;6.77;2.90;;;12.00;99.90;;;;;;5054288;28;20203;-68
2021/05/26 00:24:10;;;;;;;9.17;3.57;;;11.90;99.90;;;;;;5054012;28;20261;-68
2021/05/26 00:26:37;;;;;;;8.10;3.43;;;11.80;99.90;;;;;;5054552;28;20293;-68
2021/05/26 00:29:04;;;;;;;10.60;3.83;;;11.70;99.90;;;;;;5054359;28;20233;-68
2021/05/26 00:31:32;;;;;;;8.47;3.13;;;11.70;99.90;;;;;;5054124;28;20686;-68
2021/05/26 00:33:58;;;;;;;7.23;3.10;;;11.70;99.90;;;;;;5054165;28;20210;-68
2021/05/26 00:36:25;;;;;;;15.50;4.63;;;11.70;99.90;;;;;;5054014;28;20304;-67
2021/05/26 00:38:51;;;;;;;7.85;3.88;;;11.70;99.90;;;;;;5053900;28;20573;-68
2021/05/26 00:41:17;;;;;;;13.03;3.33;;;11.70;99.90;;;;;;5053946;28;20207;-68
2021/05/26 00:43:44;;;;;;;8.97;4.13;;;11.80;99.90;;;;;;5054050;28;20226;-67
2021/05/26 00:46:11;;;;;;;9.93;3.77;;;11.70;99.90;;;;;;5053918;28;20203;-68
2021/05/26 00:48:38;;;;;;;8.30;4.00;;;11.60;99.90;;;;;;5054097;28;20203;-68
2021/05/26 00:51:05;;;;;;;10.63;3.43;;;11.60;99.90;;;;;;5053978;28;20206;-69
2021/05/26 00:53:33;;;;;;;6.85;3.80;;;11.60;99.90;;;;;;5053571;28;20234;-68
2021/05/26 00:55:59;;;;;;;9.53;3.90;;;11.60;99.90;;;;;;5053512;28;20609;-69
2021/05/26 00:58:26;;;;;;;9.30;4.28;;;11.50;99.90;;;;;;5053760;28;20198;-68
2021/05/26 01:00:52;;;;;;;8.20;3.63;;;11.50;99.90;;;;;;5053707;28;20206;-68
2021/05/26 01:03:19;;;;;;;6.90;3.33;;;11.50;99.90;;;;;;5053610;28;20202;-68
2021/05/26 01:05:46;;;;;;;13.07;3.80;;;11.50;99.90;;;;;;5053395;28;20203;-68
2021/05/26 01:08:13;;;;;;;10.70;4.10;;;11.50;99.90;;;;;;5053442;28;20199;-68
2021/05/26 01:10:40;;;;;;;6.45;3.50;;;11.50;99.90;;;;;;5053971;28;20222;-69
2021/05/26 01:13:07;;;;;;;9.97;3.13;;;11.50;99.90;;;;;;5053668;28;20239;-67
2021/05/26 01:15:34;;;;;;;10.90;4.07;;;11.40;99.90;;;;;;5053335;28;20203;-67
2021/05/26 01:18:19;;;;;;;8.80;4.03;;;11.40;99.90;;;;;;5053153;28;20213;-68
2021/05/26 01:20:47;;;;;;;9.60;3.50;;;11.40;99.90;;;;;;5053229;28;20214;-70
2021/05/26 01:23:16;;;;;;;10.70;4.77;;;11.40;99.90;;;;;;5053033;28;20210;-70
2021/05/26 01:25:44;;;;;;;6.43;3.40;;;11.40;99.90;;;;;;5052708;28;20206;-69
2021/05/26 01:28:12;;;;;;;6.30;3.37;;;11.40;99.90;;;;;;5053282;28;20234;-70
2021/05/26 01:30:38;;;;;;;7.33;3.47;;;11.30;99.90;;;;;;5053363;28;20221;-70
2021/05/26 01:33:05;;;;;;;6.60;3.60;;;11.30;99.90;;;;;;5052792;28;20241;-70
2021/05/26 01:35:32;;;;;;;5.60;3.40;;;11.20;99.90;;;;;;5053050;28;20203;-70
2021/05/26 01:37:58;;;;;;;13.20;4.10;;;11.20;99.90;;;;;;5052722;28;20667;-69
2021/05/26 01:40:26;;;;;;;7.40;3.40;;;11.20;99.90;;;;;;5052746;28;20237;-70
2021/05/26 01:42:52;;;;;;;10.03;3.90;;;11.10;99.90;;;;;;5052684;28;20217;-70
2021/05/26 01:45:19;;;;;;;8.83;4.27;;;11.10;99.90;;;;;;5052668;28;20203;-70
2021/05/26 01:47:49;;;;;;;12.53;3.80;;;11.00;99.90;;;;;;5052607;28;20233;-70
2021/05/26 01:50:21;;;;;;;9.33;3.47;;;11.00;99.90;;;;;;5052596;28;20207;-70
2021/05/26 01:52:49;;;;;;;13.70;4.80;;;11.10;99.90;;;;;;5052262;28;20681;-69
2021/05/26 01:55:15;;;;;;;10.73;3.23;;;11.00;99.90;;;;;;5052477;28;20681;-70
2021/05/26 01:57:44;;;;;;;8.10;3.87;;;11.00;99.90;;;;;;5052681;28;20214;-70
2021/05/26 02:00:14;;;;;;;9.00;3.30;;;11.00;99.90;;;;;;5052757;28;20285;-70
2021/05/26 02:02:40;;;;;;;12.87;4.17;;;11.10;99.90;;;;;;5052743;28;20209;-69
2021/05/26 02:05:08;;;;;;;9.50;3.80;;;11.00;99.90;;;;;;5052436;28;20203;-70
2021/05/26 02:07:35;;;;;;;15.30;5.20;;;11.00;99.90;;;;;;5052323;28;20203;-69
2021/05/26 02:10:02;;;;;;;8.00;4.03;;;11.00;99.90;;;;;;5052245;28;20207;-70
2021/05/26 02:12:32;;;;;;;8.43;4.20;;;11.00;99.90;;;;;;5052002;28;20277;-69
2021/05/26 02:15:01;;;;;;;10.23;3.10;;;11.00;99.90;;;;;;5052172;28;20280;-70
2021/05/26 02:17:28;;;;;;;10.53;4.37;;;11.00;99.90;;;;;;5052252;28;20360;-69
2021/05/26 02:19:55;;;;;;;10.30;4.47;;;11.00;99.90;;;;;;5052064;28;20744;-70
2021/05/26 02:22:22;;;;;;;7.17;3.70;;;10.90;99.90;;;;;;5051912;28;20232;-70
2021/05/26 02:24:49;;;;;;;8.50;3.63;;;10.90;99.90;;;;;;5051844;28;20678;-69
2021/05/26 02:27:16;;;;;;;8.63;3.57;;;10.90;99.90;;;;;;5051949;28;20198;-70
2021/05/26 02:29:43;;;;;;;10.67;5.10;;;10.90;99.90;;;;;;5052194;28;20202;-70
2021/05/26 02:32:11;;;;;;;8.07;3.53;;;11.00;99.90;;;;;;5052024;28;20260;-70
2021/05/26 02:34:38;;;;;;;11.33;3.37;;;10.90;99.90;;;;;;5051830;28;20256;-69
2021/05/26 02:37:05;;;;;;;9.63;3.50;;;10.90;99.90;;;;;;5050938;28;20210;-70
2021/05/26 02:39:33;;;;;;;7.37;4.57;;;11.00;99.90;;;;;;5051685;28;20256;-70
2021/05/26 02:42:00;;;;;;;16.30;4.43;;;11.00;99.90;;;;;;5051686;28;20666;-70
2021/05/26 02:44:26;;;;;;;6.53;3.60;;;10.90;99.90;;;;;;5052041;28;20237;-69
2021/05/26 02:46:53;;;;;;;11.10;4.33;;;10.90;99.90;;;;;;5051794;28;20256;-70
2021/05/26 02:49:20;;;;;;;10.27;4.27;;;10.70;99.90;;;;;;5051779;28;20202;-70
2021/05/26 02:51:47;;;;;;;8.77;3.27;;;10.70;99.90;;;;;;5051457;28;20249;-71
2021/05/26 02:54:13;;;;;;;9.80;3.43;;;10.60;99.90;;;;;;5051818;28;20206;-69
2021/05/26 02:56:40;;;;;;;9.70;4.87;;;10.60;99.90;;;;;;5051786;28;20203;-70
2021/05/26 02:59:07;;;;;;;10.67;4.33;;;10.60;99.90;;;;;;5051444;28;20615;-69
2021/05/26 03:01:34;;;;;;;9.90;4.40;;;10.40;99.90;;;;;;5051581;28;20285;-69
2021/05/26 03:04:01;;;;;;;10.50;3.80;;;10.40;99.90;;;;;;5051486;28;20202;-70
2021/05/26 03:06:29;;;;;;;8.10;3.80;;;10.40;99.90;;;;;;5051589;28;20203;-70
2021/05/26 03:08:55;;;;;;;10.40;4.40;;;10.50;99.90;;;;;;5051342;28;20202;-69
2021/05/26 03:11:22;;;;;;;10.67;4.10;;;10.40;99.90;;;;;;5051560;28;20203;-69
2021/05/26 03:13:48;;;;;;;4.67;3.40;;;10.60;99.90;;;;;;5051393;28;20235;-70
2021/05/26 03:16:15;;;;;;;13.10;4.83;;;10.60;99.90;;;;;;5051814;28;20578;-70
2021/05/26 03:18:41;;;;;;;6.43;3.47;;;10.50;99.90;;;;;;5051598;28;20256;-70
2021/05/26 03:21:08;;;;;;;7.33;3.87;;;10.50;99.90;;;;;;5051370;28;20816;-70
2021/05/26 03:23:35;;;;;;;11.77;4.83;;;10.40;99.90;;;;;;5051262;28;20691;-69
2021/05/26 03:26:02;;;;;;;12.17;4.20;;;10.40;99.90;;;;;;5051032;28;20214;-70
2021/05/26 03:28:28;;;;;;;11.30;3.37;;;10.40;99.90;;;;;;5051518;28;20207;-70
2021/05/26 03:30:55;;;;;;;8.87;4.07;;;10.40;99.90;;;;;;5051292;28;20578;-70
2021/05/26 03:33:21;;;;;;;12.07;4.00;;;10.40;99.90;;;;;;5051197;28;20230;-70
2021/05/26 03:35:48;;;;;;;6.67;3.40;;;10.40;99.90;;;;;;5051556;28;20284;-69
2021/05/26 03:38:14;;;;;;;9.70;3.67;;;10.30;99.90;;;;;;5051487;28;20209;-70
2021/05/26 03:40:42;;;;;;;11.30;4.33;;;10.30;99.90;;;;;;5051318;28;20207;-70
2021/05/26 03:43:09;;;;;;;13.30;3.80;;;10.30;99.90;;;;;;5051228;28;20199;-70
2021/05/26 03:45:35;;;;;;;9.87;3.90;;;10.20;99.90;;;;;;5051145;28;20261;-70
2021/05/26 03:48:02;;;;;;;5.40;3.20;;;10.20;99.90;;;;;;5053322;28;20209;-70
2021/05/26 03:50:29;;;;;;;8.77;4.67;;;10.20;99.90;;;;;;5054742;28;20257;-70
2021/05/26 03:52:58;;;;;;;12.73;4.63;;;10.30;99.90;;;;;;5054943;28;20292;-70
2021/05/26 03:55:25;;;;;;;15.93;4.63;;;10.30;99.90;;;;;;5054967;28;20213;-70
2021/05/26 03:57:53;;;;;;;15.93;5.60;;;10.30;99.90;;;;;;5054862;28;20199;-70
2021/05/26 04:00:21;;;;;;;15.77;5.00;;;10.20;99.90;;;;;;5055028;28;20230;-70
2021/05/26 04:02:48;;;;;;;17.03;5.80;;;10.20;99.90;;;;;;5055000;28;20250;-69
2021/05/26 04:05:15;;;;;;;14.63;5.07;;;10.20;99.90;;;;;;5054615;28;20199;-69
2021/05/26 04:07:42;;;;;;;7.50;4.03;;;10.10;99.90;;;;;;5054557;28;20217;-70
2021/05/26 04:10:09;;;;;;;9.57;3.90;;;10.10;99.90;;;;;;5054511;28;20203;-70
2021/05/26 04:12:37;;;;;;;14.53;5.00;;;10.00;99.90;;;;;;5054349;28;20591;-70
2021/05/26 04:15:06;;;;;;;10.87;4.20;;;10.00;99.90;;;;;;5054499;28;20230;-69
2021/05/26 04:17:33;;;;;;;12.70;4.07;;;10.00;99.90;;;;;;5054372;28;20724;-70
2021/05/26 04:20:03;;;;;;;17.00;5.37;;;10.00;99.90;;;;;;5054624;28;20211;-70
2021/05/26 04:22:31;;;;;;;16.93;4.50;;;10.00;99.90;;;;;;5054368;28;20206;-70
2021/05/26 04:24:57;;;;;;;10.20;4.90;;;9.90;99.90;;;;;;5054036;28;20265;-70
2021/05/26 04:27:24;;;;;;;12.03;3.97;;;9.80;99.90;;;;;;5054363;28;20199;-70
2021/05/26 04:29:50;;;;;;;17.77;6.30;;;9.70;99.90;;;;;;5054442;28;20829;-70
2021/05/26 04:32:18;;;;;;;11.73;5.57;;;9.70;99.90;;;;;;5054029;28;20241;-69
2021/05/26 04:34:44;;;;;;;16.53;4.83;;;9.80;99.90;;;;;;5054276;28;20203;-70
2021/05/26 04:37:10;;;;;;;8.43;4.03;;;9.90;99.90;;;;;;5054118;28;20260;-70
2021/05/26 04:39:37;;;;;;;16.77;4.97;;;9.90;99.90;;;;;;5054040;28;20203;-70
2021/05/26 04:42:04;;;;;;;16.33;5.50;;;10.00;99.90;;;;;;5053840;28;20620;-70
2021/05/26 04:44:30;;;;;;;9.03;4.13;;;10.10;99.90;;;;;;5053965;28;20614;-70
2021/05/26 04:46:57;;;;;;;11.47;3.67;;;10.10;99.90;;;;;;5053818;28;20207;-70
2021/05/26 04:49:24;;;;;;;7.87;4.43;;;10.10;99.90;;;;;;5053985;28;20356;-71
2021/05/26 04:51:51;;;;;;;13.53;4.67;;;10.10;99.90;;;;;;5054056;28;20564;-70
2021/05/26 04:54:17;;;;;;;11.57;4.57;;;10.20;99.90;;;;;;5053884;28;20253;-70
2021/05/26 04:56:44;;;;;;;8.13;4.33;;;10.20;99.90;;;;;;5053723;28;20233;-70
2021/05/26 04:59:11;;;;;;;15.20;6.07;;;10.20;99.90;;;;;;5052513;28;20272;-70
2021/05/26 05:01:38;;;;;;;11.37;4.67;;;10.20;99.90;;;;;;5053485;28;20225;-70
2021/05/26 05:04:05;;;;;;;18.63;5.83;;;10.30;99.90;;;;;;5053460;28;20250;-70
2021/05/26 05:06:32;;;;;;;11.50;4.93;;;10.30;99.90;;;;;;5053502;28;20210;-70
2021/05/26 05:08:59;;;;;;;13.47;5.47;;;10.40;99.90;;;;;;5053497;28;20553;-70
2021/05/26 05:11:25;;;;;;;15.97;6.83;;;10.40;99.90;;;;;;5053458;28;20663;-71
2021/05/26 05:13:52;;;;;;;12.30;5.77;;;10.50;99.90;;;;;;5053386;28;20234;-71
2021/05/26 05:16:18;;;;;;;11.70;4.27;;;10.60;99.90;;;;;;5053431;28;20203;-70
2021/05/26 05:18:46;;;;;;;7.87;4.97;;;10.70;99.90;;;;;;5053381;28;20214;-70
2021/05/26 05:21:12;;;;;;;10.07;5.17;;;10.70;99.90;;;;;;5053136;28;20203;-70
2021/05/26 05:23:40;;;;;;;8.17;4.47;;;10.80;99.90;;;;;;5053121;28;20210;-70
2021/05/26 05:26:06;;;;;;;15.10;5.17;;;10.90;99.90;;;;;;5052892;28;20218;-70
2021/05/26 05:28:33;;;;;;;20.33;6.87;;;10.90;99.90;;;;;;5052972;28;20207;-70
2021/05/26 05:30:59;;;;;;;11.93;5.03;;;10.90;99.90;;;;;;5053205;28;20227;-70
2021/05/26 05:33:26;;;;;;;13.53;5.63;;;10.90;99.90;;;;;;5053179;28;20234;-71
2021/05/26 05:35:52;;;;;;;10.33;4.70;;;11.00;99.90;;;;;;5053234;28;20297;-70
2021/05/26 05:38:19;;;;;;;12.00;4.70;;;11.10;99.90;;;;;;5052925;28;20253;-70
2021/05/26 05:40:47;;;;;;;11.83;5.07;;;11.30;99.90;;;;;;5052823;28;20203;-70
2021/05/26 05:43:14;;;;;;;8.33;4.77;;;11.40;99.90;;;;;;5053009;28;20199;-70
2021/05/26 05:45:41;;;;;;;12.00;6.10;;;11.40;99.90;;;;;;5052695;28;20675;-69
2021/05/26 05:48:08;;;;;;;14.93;6.43;;;11.40;99.90;;;;;;5052890;28;20206;-69
2021/05/26 05:50:34;;;;;;;15.53;6.07;;;11.30;99.90;;;;;;5052755;28;20257;-70
2021/05/26 05:53:01;;;;;;;17.60;5.40;;;11.30;99.90;;;;;;5052513;28;20235;-69
2021/05/26 05:55:27;;;;;;;14.90;5.47;;;11.30;99.90;;;;;;5052437;28;20203;-69
2021/05/26 05:57:57;;;;;;;15.93;8.13;;;11.30;99.90;;;;;;5052994;28;20207;-72
2021/05/26 06:00:23;;;;;;;14.43;4.97;;;11.40;99.90;;;;;;5053028;28;20581;-70
2021/05/26 06:02:51;;;;;;;11.40;5.33;;;11.40;99.90;;;;;;5062917;28;20210;-70
2021/05/26 06:05:17;;;;;;;9.50;5.03;;;11.40;99.90;;;;;;5052276;28;20203;-70
2021/05/26 06:07:44;;;;;;;12.73;5.77;;;11.50;99.90;;;;;;5064381;28;20268;-69
2021/05/26 06:10:12;;;;;;;9.43;5.50;;;11.70;99.90;;;;;;5071482;28;20202;-69
2021/05/26 06:12:38;;;;;;;10.67;5.93;;;11.80;99.90;;;;;;5071630;28;20238;-68
2021/05/26 06:15:07;;;;;;;16.80;6.70;;;11.80;99.90;;;;;;5072079;28;20606;-69
2021/05/26 06:17:35;;;;;;;12.00;5.63;;;12.00;99.90;;;;;;5071985;28;20244;-69
2021/05/26 06:20:01;;;;;;;15.73;5.77;;;12.00;99.90;;;;;;5071586;28;20275;-72
2021/05/26 06:22:28;;;;;;;13.57;5.33;;;12.10;99.90;;;;;;5072010;28;20259;-71
2021/05/26 06:24:54;;;;;;;15.97;6.53;;;12.10;99.90;;;;;;5072123;28;20213;-72
2021/05/26 06:27:21;;;;;;;8.07;5.33;;;12.10;99.90;;;;;;5072074;28;20267;-71
2021/05/26 06:29:47;;;;;;;12.67;5.33;;;12.20;99.90;;;;;;5072048;28;20198;-72
2021/05/26 06:32:14;;;;;;;15.43;5.13;;;12.20;99.90;;;;;;5071903;28;20229;-72
2021/05/26 06:34:41;;;;;;;14.83;5.73;;;12.20;99.90;;;;;;5064631;28;20202;-71
2021/05/26 06:37:07;;;;;;;10.97;5.23;;;12.30;99.90;;;;;;5065629;28;20320;-74
2021/05/26 06:39:34;;;;;;;15.30;5.73;;;12.40;99.90;;;;;;5070883;28;20213;-71
2021/05/26 06:42:00;;;;;;;11.83;5.03;;;12.50;99.90;;;;;;5071242;28;20210;-72
2021/05/26 06:44:27;;;;;;;16.40;6.27;;;12.70;99.90;;;;;;5072163;28;20206;-71
2021/05/26 06:46:54;;;;;;;15.53;5.77;;;13.00;99.90;;;;;;5071231;28;20229;-70
2021/05/26 06:49:21;;;;;;;17.23;5.77;;;13.50;99.90;;;;;;5066418;28;20220;-70
2021/05/26 06:51:48;;;;;;;12.53;5.73;;;13.50;99.90;;;;;;5066526;28;20198;-71
2021/05/26 06:54:14;;;;;;;12.50;4.32;;;13.30;99.90;;;;;;5064400;28;20241;-70
2021/05/26 06:56:41;;;;;;;13.07;5.57;;;13.30;99.90;;;;;;5066394;28;20260;-72
2021/05/26 06:59:07;;;;;;;8.70;4.77;;;13.40;99.90;;;;;;5057610;28;20210;-70
2021/05/26 07:01:33;;;;;;;14.07;5.20;;;13.60;99.90;;;;;;5067399;28;20214;-70
2021/05/26 07:04:00;;;;;;;13.18;5.40;;;13.80;99.90;;;;;;5071303;28;20205;-69
2021/05/26 07:06:27;;;;;;;14.68;5.18;;;14.10;99.90;;;;;;5071409;28;20675;-70
2021/05/26 07:08:54;;;;;;;12.60;5.82;;;14.00;99.90;;;;;;5054200;28;20260;-67
2021/05/26 07:11:20;;;;;;;16.13;4.60;;;13.80;99.90;;;;;;5051286;28;20209;-68
2021/05/26 07:13:46;;;;;;;11.02;5.35;;;13.70;99.90;;;;;;5051175;28;20241;-68
2021/05/26 07:16:13;;;;;;;12.32;6.07;;;13.60;99.90;;;;;;5050968;28;20214;-67
2021/05/26 07:18:43;;;;;;;12.50;4.95;;;13.90;99.90;;;;;;5051122;28;20331;-67
2021/05/26 07:21:09;;;;;;;17.35;4.97;;;14.10;99.90;;;;;;5064043;28;20271;-70
2021/05/26 07:23:37;;;;;;;10.63;4.45;;;14.30;99.90;;;;;;5071541;28;20202;-68
2021/05/26 07:26:03;;;;;;;15.23;4.65;;;14.40;99.90;;;;;;5074957;28;20225;-67
2021/05/26 07:28:29;;;;;;;11.60;5.78;;;14.60;99.90;;;;;;5068840;28;20199;-69
2021/05/26 07:30:56;;;;;;;13.80;4.75;;;14.80;99.90;;;;;;5055387;28;20199;-69
2021/05/26 07:33:22;;;;;;;12.73;5.78;;;14.80;99.90;;;;;;5056587;28;20284;-69
2021/05/26 07:35:49;;;;;;;18.40;6.18;;;14.80;99.90;;;;;;5064406;28;20210;-69
2021/05/26 07:38:15;;;;;;;12.32;5.07;;;15.10;99.90;;;;;;5074851;28;20331;-69
2021/05/26 07:40:43;;;;;;;11.15;4.35;;;15.00;99.90;;;;;;5061120;28;20214;-68
2021/05/26 07:43:09;;;;;;;14.75;5.50;;;15.40;99.90;;;;;;5054552;28;20666;-67
2021/05/26 07:45:36;;;;;;;9.30;4.57;;;15.50;99.90;;;;;;5055669;28;20206;-67
2021/05/26 07:48:02;;;;;;;16.17;5.57;;;15.40;99.90;;;;;;5059635;28;20198;-67
2021/05/26 07:50:34;;;;;;;15.77;4.43;;;15.60;99.90;;;;;;5069118;28;20254;-68
2021/05/26 07:53:00;;;;;;;12.50;5.28;;;16.00;99.90;;;;;;5060623;28;20283;-67
2021/05/26 07:55:27;;;;;;;15.88;5.15;;;16.50;99.90;;;;;;5072911;28;20701;-67
2021/05/26 07:57:54;;;;;;;11.20;4.50;;;17.20;99.90;;;;;;5071503;28;20213;-70
2021/05/26 08:00:22;;;;;;;11.32;4.55;;;16.90;99.90;;;;;;5069042;28;20275;-72
2021/05/26 08:02:48;;;;;;;6.97;3.90;;;17.40;99.90;;;;;;5064125;28;20701;-72
2021/05/26 08:05:16;;;;;;;16.00;5.45;;;16.90;99.90;;;;;;5074594;28;20206;-69
2021/05/26 08:07:42;;;;;;;15.82;5.13;;;17.20;99.90;;;;;;5056479;28;20234;-72
2021/05/26 08:10:12;;;;;;;11.98;4.65;;;18.50;99.90;;;;;;5056545;28;20214;-71
2021/05/26 08:12:38;;;;;;;17.17;5.80;;;17.90;99.90;;;;;;5066515;28;20348;-70
2021/05/26 08:15:07;;;;;;;14.55;5.30;;;17.50;99.90;;;;;;5073761;28;20202;-72
2021/05/26 08:17:34;;;;;;;13.15;4.35;;;17.10;99.90;;;;;;5054331;28;20199;-72
2021/05/26 08:20:01;;;;;;;15.48;4.75;;;16.50;99.90;;;;;;5054748;28;20199;-71
2021/05/26 08:22:28;;;;;;;11.38;5.43;;;15.80;99.90;;;;;;5067275;28;20240;-71
2021/05/26 08:24:54;;;;;;;9.30;4.90;;;15.90;99.90;;;;;;5073701;28;20226;-71
2021/05/26 08:27:20;;;;;;;11.57;4.47;;;16.30;99.90;;;;;;5069742;28;20256;-71
2021/05/26 08:29:47;;;;;;;9.43;4.55;;;16.00;99.90;;;;;;5066941;28;20693;-72
2021/05/26 08:32:14;;;;;;;9.50;4.18;;;15.70;99.90;;;;;;5073532;28;20198;-70
2021/05/26 08:34:41;;;;;;;14.95;5.43;;;16.20;99.90;;;;;;5073683;28;20259;-70
2021/05/26 08:37:08;;;;;;;13.45;4.80;;;16.20;99.90;;;;;;5073959;28;20208;-70
2021/05/26 08:39:36;;;;;;;12.77;4.45;;;16.40;99.90;;;;;;5073860;28;20202;-69
2021/05/26 08:42:03;;;;;;;14.70;4.45;;;16.50;99.90;;;;;;5073671;28;20214;-69
2021/05/26 08:44:30;;;;;;;11.23;4.13;;;17.20;99.90;;;;;;5073938;28;20707;-70
2021/05/26 08:46:57;;;;;;;10.90;3.88;;;17.80;99.90;;;;;;5073671;28;20245;-72
2021/05/26 08:49:27;;;;;;;11.73;4.03;;;18.30;99.90;;;;;;5073278;28;20678;-70
2021/05/26 08:51:54;;;;;;;13.90;4.53;;;18.80;99.90;;;;;;5073109;28;20751;-72
2021/05/26 08:54:20;;;;;;;8.48;4.13;;;19.40;99.90;;;;;;5073266;28;20763;-70
2021/05/26 08:56:48;;;;;;;6.63;3.55;;;20.30;99.90;;;;;;5073392;28;20212;-70
2021/05/26 08:59:15;;;;;;;7.40;3.67;;;20.90;99.90;;;;;;5073687;28;20246;-70
2021/05/26 09:01:47;;;;;;;7.30;4.57;;;20.70;99.90;;;;;;5072276;28;20241;-74
2021/05/26 09:04:29;;;;;;;8.40;4.22;;;23.00;99.90;;;;;;5062991;28;20202;-72
2021/05/26 09:07:10;;;;;;;8.80;3.95;;;24.40;99.90;;;;;;5063452;28;20705;-72
2021/05/26 09:09:48;;;;;;;9.23;3.53;;;21.60;99.90;;;;;;5052761;28;20654;-69
2021/05/26 09:12:15;;;;;;;7.15;3.50;;;20.70;99.90;;;;;;5052701;28;20261;-69
2021/05/26 09:14:42;;;;;;;12.63;4.18;;;21.10;99.90;;;;;;5053092;28;20564;-68
2021/05/26 09:17:10;;;;;;;9.77;3.85;;;23.00;99.90;;;;;;5053211;28;20229;-69
2021/05/26 09:19:38;;;;;;;8.38;3.65;;;23.80;99.90;;;;;;5053291;28;20210;-68
2021/05/26 09:22:10;;;;;;;8.98;3.75;;;22.10;99.90;;;;;;5053601;28;20199;-68
2021/05/26 09:24:36;;;;;;;10.60;4.22;;;22.50;99.90;;;;;;5053145;28;20221;-70
2021/05/26 09:27:05;;;;;;;8.15;3.58;;;23.40;99.90;;;;;;5053327;28;20207;-68
2021/05/26 09:29:33;;;;;;;7.25;4.05;;;21.10;99.90;;;;;;5053053;28;20210;-69
2021/05/26 09:32:21;;;;;;;10.10;4.47;;;19.90;99.90;;;;;;5052955;28;20547;-72
2021/05/26 09:34:49;;;;;;;7.47;3.97;;;20.20;99.90;;;;;;5052852;28;20689;-68
2021/05/26 09:37:18;;;;;;;9.30;3.13;;;20.20;99.90;;;;;;5053036;28;20229;-70
2021/05/26 09:39:53;;;;;;;9.25;3.88;;;19.70;99.90;;;;;;5052873;28;20203;-69
2021/05/26 09:42:25;;;;;;;6.07;4.05;;;19.30;99.90;;;;;;5052690;28;20203;-69
2021/05/26 09:45:12;;;;;;;9.15;3.40;;;19.30;99.90;;;;;;5055714;28;20229;-68
2021/05/26 09:47:40;;;;;;;8.90;2.92;;;18.90;99.90;;;;;;5052695;28;20671;-68
2021/05/26 09:50:25;;;;;;;9.27;3.55;;;19.50;99.90;;;;;;5052803;28;20548;-69
2021/05/26 09:53:03;;;;;;;5.93;3.60;;;19.50;99.90;;;;;;5052353;28;20238;-71
2021/05/26 09:55:31;;;;;;;12.82;4.88;;;20.00;99.90;;;;;;5052494;28;20209;-69
2021/05/26 09:57:59;;;;;;;12.55;4.32;;;20.50;99.90;;;;;;5052328;28;20583;-73
2021/05/26 10:00:26;;;;;;;8.32;5.13;;;20.60;99.90;;;;;;5052476;28;20209;-74
2021/05/26 10:02:53;;;;;;;8.40;3.72;;;20.80;99.90;;;;;;5052358;28;20202;-69
2021/05/26 10:05:21;;;;;;;7.47;3.55;;;20.60;99.90;;;;;;5052222;28;20570;-70
2021/05/26 10:07:52;;;;;;;8.25;4.40;;;21.00;99.90;;;;;;5052199;28;20745;-70
2021/05/26 10:10:20;;;;;;;5.07;3.22;;;23.10;99.90;;;;;;5052246;28;20294;-71
2021/05/26 10:12:52;;;;;;;7.53;4.57;;;22.50;99.90;;;;;;5051977;28;20732;-72
2021/05/26 10:15:20;;;;;;;5.13;3.60;;;22.60;99.90;;;;;;5052185;28;20203;-70
2021/05/26 10:17:52;;;;;;;8.88;4.05;;;23.20;99.90;;;;;;5052119;28;20203;-69
2021/05/26 10:20:24;;;;;;;8.70;3.58;;;23.60;99.90;;;;;;5052095;28;20203;-71
2021/05/26 10:22:52;;;;;;;6.25;3.10;;;23.60;99.90;;;;;;5051995;28;20209;-72
2021/05/26 10:25:20;;;;;;;5.60;3.75;;;22.70;99.90;;;;;;5051740;28;20206;-71
2021/05/26 10:27:49;;;;;;;6.32;3.75;;;24.00;99.90;;;;;;5052201;28;20206;-71
2021/05/26 10:30:17;;;;;;;9.73;3.70;;;23.10;99.90;;;;;;5051940;28;20202;-69
2021/05/26 10:32:58;;;;;;;5.28;3.30;;;23.80;99.90;;;;;;5051843;28;20261;-69
2021/05/26 10:35:27;;;;;;;10.88;4.28;;;22.30;99.90;;;;;;5063756;28;20247;-72
2021/05/26 10:38:04;;;;;;;7.40;3.55;;;20.00;99.90;;;;;;5071843;28;20216;-70
2021/05/26 10:40:42;;;;;;;10.85;4.47;;;20.00;99.90;;;;;;5071682;28;20210;-71
2021/05/26 10:43:41;;;;;;;11.15;4.15;;;19.60;99.90;;;;;;5071900;28;20681;-71
2021/05/26 10:46:07;;;;;;;5.57;4.13;;;19.50;99.90;;;;;;5068212;28;20235;-72
2021/05/26 10:48:55;;;;;;;7.25;4.03;;;19.50;99.90;;;;;;5071721;28;20202;-71
2021/05/26 10:52:06;;;;;;;6.43;3.30;;;19.60;99.90;;;;;;5068261;28;20209;-71
2021/05/26 10:55:04;;;;;;;6.95;3.38;;;20.20;99.90;;;;;;5071351;28;20602;-71
2021/05/26 10:57:52;;;;;;;10.98;3.30;;;19.50;99.90;;;;;;5070646;28;20275;-70
2021/05/26 11:00:32;;;;;;;8.65;3.17;;;19.30;99.90;;;;;;5071600;28;20208;-70
2021/05/26 11:03:41;;;;;;;5.35;3.50;;;19.60;99.90;;;;;;5071240;28;20669;-71
2021/05/26 11:06:39;;;;;;;10.27;4.80;;;19.90;99.90;;;;;;5071822;28;20661;-71
2021/05/26 11:09:10;;;;;;;10.55;4.22;;;20.20;99.90;;;;;;5071591;28;20198;-72
2021/05/26 11:11:49;;;;;;;12.55;3.47;;;20.10;99.90;;;;;;5071325;28;20206;-70
2021/05/26 11:14:35;;;;;;;4.10;2.58;;;20.20;99.90;;;;;;5071252;28;20245;-71
2021/05/26 11:17:32;;;;;;;18.98;4.05;;;19.50;99.90;;;;;;5071378;28;20334;-71
2021/05/26 11:20:28;;;;;;;6.47;3.30;;;19.30;99.90;;;;;;5071297;28;20244;-69
2021/05/26 11:22:55;;;;;;;10.63;3.90;;;20.40;99.90;;;;;;5071204;28;20210;-70
2021/05/26 11:25:21;;;;;;;7.55;3.17;;;20.80;99.90;;;;;;5071033;28;20705;-71
2021/05/26 11:27:50;;;;;;;10.00;3.85;;;20.30;99.90;;;;;;5071476;28;20202;-75
2021/05/26 11:30:22;;;;;;;6.85;2.78;;;20.30;99.90;;;;;;5071260;28;20207;-69
2021/05/26 11:32:49;;;;;;;6.07;3.22;;;20.20;99.90;;;;;;5071150;28;20250;-70
2021/05/26 11:35:15;;;;;;;8.82;3.90;;;19.40;99.90;;;;;;5071230;28;20210;-70
2021/05/26 11:37:42;;;;;;;7.65;4.65;;;19.40;99.90;;;;;;5071711;28;20288;-70
2021/05/26 11:40:22;;;;;;;8.77;3.97;;;19.80;99.90;;;;;;5071321;28;20198;-71
2021/05/26 11:42:48;;;;;;;9.80;3.85;;;20.30;99.90;;;;;;5071035;28;20202;-70
2021/05/26 11:45:15;;;;;;;7.25;3.30;;;20.50;99.90;;;;;;5071120;28;20213;-71
2021/05/26 11:47:42;;;;;;;11.25;4.20;;;20.60;99.90;;;;;;5071331;28;20217;-69
2021/05/26 11:50:24;;;;;;;5.93;3.97;;;20.80;99.90;;;;;;5071037;28;20202;-71
2021/05/26 11:52:52;;;;;;;7.97;4.45;;;19.90;99.90;;;;;;5071017;28;20256;-71
2021/05/26 11:55:21;;;;;;;10.00;3.80;;;19.70;99.90;;;;;;5070998;28;20213;-71
2021/05/26 11:57:49;;;;;;;8.45;4.25;;;20.20;99.90;;;;;;5071018;28;20206;-72
2021/05/26 12:00:24;;;;;;;10.80;4.68;;;20.50;99.90;;;;;;5070962;28;20206;-69
2021/05/26 12:02:56;;;;;;;5.45;3.28;;;20.30;99.90;;;;;;5071162;28;20241;-71
2021/05/26 12:05:39;;;;;;;7.70;4.05;;;20.40;99.90;;;;;;5070923;28;20307;-71
2021/05/26 12:08:20;;;;;;;6.03;3.35;;;20.40;99.90;;;;;;5071783;28;20562;-71
2021/05/26 12:10:51;;;;;;;6.63;3.30;;;20.30;99.90;;;;;;5074236;28;20206;-71
2021/05/26 12:13:19;;;;;;;7.60;4.20;;;20.70;99.90;;;;;;5074348;28;20230;-71
2021/05/26 12:15:45;;;;;;;7.70;3.33;;;21.00;99.90;;;;;;5074845;28;20206;-71
2021/05/26 12:18:12;;;;;;;8.13;3.33;;;21.10;99.90;;;;;;5074527;28;20206;-70
2021/05/26 12:20:43;;;;;;;11.43;3.70;;;21.40;99.90;;;;;;5074270;28;20673;-72
2021/05/26 12:23:10;;;;;;;7.47;3.78;;;21.30;99.90;;;;;;5074243;28;20202;-72
2021/05/26 12:25:38;;;;;;;7.80;3.55;;;21.00;99.90;;;;;;5073962;28;20213;-70
2021/05/26 12:28:20;;;;;;;7.70;3.30;;;20.70;99.90;;;;;;5074233;28;20255;-71
2021/05/26 12:30:47;;;;;;;8.15;3.33;;;20.60;99.90;;;;;;5073993;28;20628;-71
2021/05/26 12:33:19;;;;;;;9.27;3.85;;;21.10;99.90;;;;;;5074144;28;20244;-73
2021/05/26 12:36:00;;;;;;;8.40;3.78;;;20.90;99.90;;;;;;5065020;28;20201;-69
2021/05/26 12:38:27;;;;;;;7.63;3.50;;;20.30;99.90;;;;;;5054033;28;20210;-69
2021/05/26 12:40:54;;;;;;;6.35;3.97;;;20.40;99.90;;;;;;5053827;28;20623;-68
2021/05/26 12:43:27;;;;;;;11.02;3.50;;;20.50;99.90;;;;;;5053997;28;20207;-69
2021/05/26 12:45:55;;;;;;;7.13;3.20;;;20.90;99.90;;;;;;5053776;28;20210;-70
2021/05/26 12:48:22;;;;;;;8.68;3.95;;;20.80;99.90;;;;;;5053781;28;20210;-68
2021/05/26 12:50:49;;;;;;;7.43;3.45;;;21.10;99.90;;;;;;5053976;28;20229;-69
2021/05/26 12:53:17;;;;;;;9.32;3.00;;;21.60;99.90;;;;;;5053978;28;20226;-69